Time;durP1;ratioP1;P1;durP2;ratioP2;P2;SDS_P1;SDS_P2;PMS_P1;PMS_P2;Temp;Humidity;BMP_temperature;BMP_pressure;BME280_temperature;BME280_humidity;BME280_pressure;Samples;Min_cycle;Max_cycle;Signal;HPM_P1;HPM_P2
2021/05/11 00:01:55;;;;;;;1.00;1.00;;;22.40;51.90;;;;;;4979587;28;20436;-70
2021/05/11 00:04:22;;;;;;;2.13;1.17;;;22.40;52.00;;;;;;4993663;28;20453;-69
2021/05/11 00:06:49;;;;;;;3.08;1.20;;;22.30;51.80;;;;;;4981368;28;20781;-70
2021/05/11 00:09:15;;;;;;;2.45;1.00;;;22.30;51.90;;;;;;4989018;28;20408;-69
2021/05/11 00:11:41;;;;;;;1.10;1.00;;;22.30;51.90;;;;;;4997599;28;20420;-73
2021/05/11 00:14:07;;;;;;;1.00;0.90;;;22.30;51.90;;;;;;4988710;28;20424;-70
2021/05/11 00:16:33;;;;;;;1.10;1.00;;;22.30;52.00;;;;;;5008971;28;20429;-73
2021/05/11 00:19:02;;;;;;;1.23;1.02;;;22.30;51.90;;;;;;4995913;28;20414;-69
2021/05/11 00:21:29;;;;;;;0.90;0.80;;;22.30;51.90;;;;;;5001549;28;21058;-70
2021/05/11 00:23:55;;;;;;;2.10;1.30;;;22.30;51.90;;;;;;4996793;28;20423;-70
2021/05/11 00:26:21;;;;;;;0.80;0.80;;;22.20;52.00;;;;;;4989617;28;21193;-67
2021/05/11 00:28:47;;;;;;;1.20;1.10;;;22.20;52.10;;;;;;4989679;28;20410;-69
2021/05/11 00:31:13;;;;;;;0.90;0.90;;;22.30;52.00;;;;;;4999659;28;20421;-70
2021/05/11 00:33:39;;;;;;;1.70;1.10;;;22.20;52.00;;;;;;4998296;28;20424;-67
2021/05/11 00:36:06;;;;;;;1.40;1.30;;;22.30;52.10;;;;;;4984445;28;20414;-70
2021/05/11 00:38:33;;;;;;;2.17;1.10;;;22.20;52.00;;;;;;4997244;28;20475;-70
2021/05/11 00:40:59;;;;;;;2.30;1.00;;;22.20;52.10;;;;;;4993256;28;20443;-70
2021/05/11 00:43:26;;;;;;;2.05;0.80;;;22.20;52.10;;;;;;4999587;28;20417;-68
2021/05/11 00:45:52;;;;;;;1.25;1.15;;;22.30;52.10;;;;;;5001268;28;20417;-69
2021/05/11 00:48:18;;;;;;;1.30;0.80;;;22.30;52.00;;;;;;4980850;28;20415;-68
2021/05/11 00:50:44;;;;;;;1.77;1.20;;;22.30;52.00;;;;;;4986205;28;20431;-68
2021/05/11 00:53:10;;;;;;;1.92;1.10;;;22.30;52.10;;;;;;4996981;28;20431;-67
2021/05/11 00:55:38;;;;;;;1.25;0.98;;;22.30;52.00;;;;;;4975882;28;20438;-69
2021/05/11 00:58:05;;;;;;;1.67;1.00;;;22.30;51.90;;;;;;4979628;28;20418;-70
2021/05/11 01:00:31;;;;;;;1.00;0.90;;;22.20;51.90;;;;;;4988520;28;20415;-70
2021/05/11 01:02:57;;;;;;;1.10;0.90;;;22.30;52.00;;;;;;4998655;28;20418;-68
2021/05/11 01:05:23;;;;;;;1.60;1.10;;;22.30;52.00;;;;;;4987974;28;20461;-69
2021/05/11 01:07:49;;;;;;;5.18;1.00;;;22.30;52.00;;;;;;4998583;28;20935;-70
2021/05/11 01:10:15;;;;;;;1.20;1.10;;;22.20;52.00;;;;;;4998734;28;20918;-68
2021/05/11 01:12:42;;;;;;;2.20;1.10;;;22.20;52.00;;;;;;5002902;28;20485;-67
2021/05/11 01:15:10;;;;;;;1.88;1.08;;;22.20;51.90;;;;;;4994883;28;20475;-67
2021/05/11 01:17:37;;;;;;;1.42;1.05;;;22.20;52.00;;;;;;4992989;28;20428;-69
2021/05/11 01:20:05;;;;;;;3.20;0.90;;;22.20;52.00;;;;;;4997644;28;20422;-70
2021/05/11 01:22:49;;;;;;;1.70;0.80;;;22.30;52.10;;;;;;5011113;28;21020;-71
2021/05/11 01:25:18;;;;;;;2.17;0.90;;;22.30;52.00;;;;;;5003554;28;20424;-70
2021/05/11 01:27:58;;;;;;;1.10;1.00;;;22.30;51.90;;;;;;4997297;28;20977;-70
2021/05/11 01:30:46;;;;;;;2.88;1.00;;;22.30;51.70;;;;;;5007837;28;20412;-69
2021/05/11 01:44:52;;;;;;;2.50;0.98;;;22.30;51.70;;;;;;4989702;28;20428;-71
2021/05/11 01:50:12;;;;;;;1.00;0.80;;;22.30;51.70;;;;;;4992753;28;20401;-68
2021/05/11 01:52:58;;;;;;;1.00;0.90;;;22.40;51.80;;;;;;4996257;28;20458;-70
2021/05/11 01:55:33;;;;;;;1.08;0.90;;;22.40;51.80;;;;;;4990053;28;20830;-70
2021/05/11 01:58:21;;;;;;;2.10;1.10;;;22.30;51.70;;;;;;4991404;28;20429;-69
2021/05/11 02:22:52;;;;;;;0.85;0.85;;;22.30;51.80;;;;;;4976659;28;20420;-70
2021/05/11 02:25:18;;;;;;;1.50;1.15;;;22.30;51.70;;;;;;4992221;28;20423;-68
2021/05/11 02:27:45;;;;;;;1.10;1.00;;;22.30;51.90;;;;;;4975755;28;20427;-70
2021/05/11 02:30:12;;;;;;;1.50;1.10;;;22.30;51.80;;;;;;4988684;28;20546;-72
2021/05/11 02:32:39;;;;;;;1.20;1.10;;;22.30;51.80;;;;;;4993114;28;20420;-70
2021/05/11 02:35:05;;;;;;;1.30;1.00;;;22.30;51.90;;;;;;4985526;28;21378;-69
2021/05/11 02:37:31;;;;;;;1.50;1.40;;;22.20;51.90;;;;;;5001441;28;20431;-69
2021/05/11 02:39:58;;;;;;;2.50;1.30;;;22.30;51.90;;;;;;4986142;28;20419;-68
2021/05/11 02:42:24;;;;;;;1.10;1.00;;;22.30;51.90;;;;;;4991040;28;20424;-68
2021/05/11 02:44:52;;;;;;;2.80;1.20;;;22.20;52.00;;;;;;4988869;28;20580;-72
2021/05/11 02:47:18;;;;;;;1.70;1.10;;;22.20;51.90;;;;;;4986202;28;20508;-70
2021/05/11 02:49:45;;;;;;;2.13;1.25;;;22.20;51.90;;;;;;4977629;28;20445;-70
2021/05/11 02:52:12;;;;;;;1.20;1.10;;;22.20;51.90;;;;;;4988652;28;20435;-71
2021/05/11 02:54:38;;;;;;;2.10;1.02;;;22.20;52.00;;;;;;4991983;28;20932;-71
2021/05/11 02:57:05;;;;;;;1.60;1.17;;;22.20;51.90;;;;;;4981311;28;20487;-70
2021/05/11 02:59:31;;;;;;;1.60;1.23;;;22.20;51.90;;;;;;5006241;28;20792;-67
2021/05/11 03:01:58;;;;;;;1.30;0.90;;;22.20;52.00;;;;;;4973225;28;22196;-68
2021/05/11 03:04:24;;;;;;;1.27;1.10;;;22.20;51.90;;;;;;5000004;28;20801;-69
2021/05/11 03:06:52;;;;;;;1.30;1.20;;;22.20;52.00;;;;;;4989733;28;21010;-72
2021/05/11 03:09:18;;;;;;;1.95;0.90;;;22.20;51.80;;;;;;4979905;28;20947;-71
2021/05/11 03:11:44;;;;;;;1.30;0.90;;;22.20;51.70;;;;;;4990350;28;20417;-68
2021/05/11 03:14:11;;;;;;;1.90;1.00;;;22.20;51.90;;;;;;4985256;28;21668;-68
2021/05/11 03:16:37;;;;;;;2.20;1.00;;;22.20;52.00;;;;;;4988009;28;20455;-67
2021/05/11 03:19:04;;;;;;;3.00;1.00;;;22.20;51.90;;;;;;4989418;28;21108;-69
2021/05/11 03:21:30;;;;;;;1.23;1.13;;;22.20;51.90;;;;;;4994238;28;20503;-68
2021/05/11 03:23:56;;;;;;;1.52;0.80;;;22.10;51.90;;;;;;5000207;28;20422;-69
2021/05/11 03:26:22;;;;;;;1.10;0.90;;;22.10;52.00;;;;;;4991892;28;20402;-68
2021/05/11 03:28:49;;;;;;;1.42;1.10;;;22.10;51.90;;;;;;4989442;28;20968;-67
2021/05/11 03:31:15;;;;;;;1.37;0.97;;;22.20;51.70;;;;;;4979427;28;22465;-71
2021/05/11 03:33:41;;;;;;;1.33;0.93;;;22.20;51.80;;;;;;4995583;28;20429;-71
2021/05/11 03:36:08;;;;;;;0.90;0.90;;;22.20;51.70;;;;;;4988957;28;21397;-70
2021/05/11 03:38:34;;;;;;;0.90;0.90;;;22.20;52.00;;;;;;4988450;28;20422;-70
2021/05/11 03:41:00;;;;;;;2.83;1.27;;;22.10;52.70;;;;;;4989269;28;20433;-69
2021/05/11 03:43:30;;;;;;;1.00;0.90;;;22.20;52.00;;;;;;4983149;28;20438;-69
2021/05/11 03:45:59;;;;;;;1.17;0.82;;;22.10;52.00;;;;;;4987529;28;20414;-70
2021/05/11 03:48:25;;;;;;;2.00;0.83;;;22.10;52.00;;;;;;4973728;28;20437;-71
2021/05/11 03:50:51;;;;;;;1.13;0.80;;;22.10;52.10;;;;;;4989114;28;20507;-71
2021/05/11 03:53:18;;;;;;;1.52;0.80;;;22.10;52.00;;;;;;4983873;28;20431;-71
2021/05/11 03:55:44;;;;;;;0.70;0.70;;;22.10;52.20;;;;;;4968401;28;20767;-68
2021/05/11 03:58:11;;;;;;;1.27;0.90;;;22.00;52.10;;;;;;4975942;28;20409;-68
2021/05/11 04:00:37;;;;;;;0.75;0.70;;;22.00;52.10;;;;;;4975175;28;20428;-69
2021/05/11 04:03:03;;;;;;;1.00;0.90;;;22.00;52.20;;;;;;4990187;28;20434;-68
2021/05/11 04:05:30;;;;;;;1.00;1.00;;;22.10;52.30;;;;;;4979073;28;20436;-68
2021/05/11 04:07:58;;;;;;;0.93;0.93;;;22.10;52.10;;;;;;4978941;28;20425;-71
2021/05/11 04:10:32;;;;;;;1.00;0.80;;;22.20;52.10;;;;;;4986728;28;20430;-67
2021/05/11 04:13:31;;;;;;;1.47;0.90;;;22.30;52.00;;;;;;4989726;28;20432;-69
2021/05/11 04:16:15;;;;;;;1.08;0.90;;;22.30;51.80;;;;;;4977224;28;20863;-68
2021/05/11 04:18:41;;;;;;;0.70;0.70;;;22.30;51.70;;;;;;4977876;28;20439;-67
2021/05/11 04:21:07;;;;;;;2.40;0.90;;;22.40;51.60;;;;;;4980991;28;20428;-68
2021/05/11 04:23:33;;;;;;;1.23;0.80;;;22.40;51.60;;;;;;4981193;28;20445;-69
2021/05/11 04:26:00;;;;;;;0.80;0.80;;;22.40;51.60;;;;;;4981012;28;20427;-68
2021/05/11 04:28:27;;;;;;;0.70;0.70;;;22.30;51.80;;;;;;4980478;28;20499;-72
2021/05/11 04:30:53;;;;;;;0.73;0.73;;;22.30;51.80;;;;;;4990603;28;20993;-68
2021/05/11 04:33:19;;;;;;;2.05;1.00;;;22.30;51.60;;;;;;4988732;28;20913;-68
2021/05/11 04:35:45;;;;;;;1.00;0.70;;;22.30;51.70;;;;;;4984708;28;20761;-70
2021/05/11 04:38:11;;;;;;;0.88;0.70;;;22.20;51.70;;;;;;4981506;28;21326;-68
2021/05/11 04:40:37;;;;;;;0.65;0.65;;;22.30;51.90;;;;;;4985821;28;20973;-73
2021/05/11 04:43:05;;;;;;;1.00;0.80;;;22.30;51.60;;;;;;4996963;28;20427;-68
2021/05/11 04:45:33;;;;;;;0.70;0.70;;;22.20;51.70;;;;;;4989942;28;20483;-70
2021/05/11 04:48:00;;;;;;;1.00;0.90;;;22.20;51.70;;;;;;4972743;28;20392;-69
2021/05/11 04:50:27;;;;;;;1.10;0.85;;;22.20;51.70;;;;;;4957528;28;21424;-69
2021/05/11 04:52:53;;;;;;;1.33;0.88;;;22.20;51.70;;;;;;4996449;28;20448;-69
2021/05/11 04:55:20;;;;;;;1.10;0.60;;;22.20;51.80;;;;;;4983163;28;20422;-69
2021/05/11 04:57:46;;;;;;;0.93;0.80;;;22.30;51.80;;;;;;4969257;28;20435;-68
2021/05/11 05:00:14;;;;;;;0.70;0.70;;;22.30;51.50;;;;;;4966005;28;20435;-70
2021/05/11 05:02:42;;;;;;;1.10;0.80;;;22.40;51.60;;;;;;4991393;28;20504;-67
2021/05/11 05:05:08;;;;;;;0.65;0.63;;;22.40;51.50;;;;;;4960521;28;20416;-70
2021/05/11 05:07:35;;;;;;;1.17;0.80;;;22.40;51.40;;;;;;4971152;28;20423;-73
2021/05/11 05:10:01;;;;;;;1.95;0.88;;;22.40;51.40;;;;;;4982418;28;20428;-71
2021/05/11 05:12:27;;;;;;;1.10;0.70;;;22.40;51.30;;;;;;4989672;28;20453;-67
2021/05/11 05:14:54;;;;;;;1.63;0.55;;;22.30;51.30;;;;;;4979006;28;20442;-69
2021/05/11 05:17:21;;;;;;;1.40;0.90;;;22.30;51.50;;;;;;4967805;28;20396;-70
2021/05/11 05:19:47;;;;;;;0.70;0.70;;;22.30;52.20;;;;;;4982596;28;20411;-70
2021/05/11 05:22:13;;;;;;;0.90;0.80;;;22.40;51.40;;;;;;4964991;28;20836;-70
2021/05/11 05:24:42;;;;;;;1.60;0.80;;;22.40;51.40;;;;;;4970424;28;20422;-69
2021/05/11 05:27:15;;;;;;;1.50;0.70;;;22.50;51.20;;;;;;4979450;28;20423;-71
2021/05/11 05:29:41;;;;;;;2.00;1.10;;;22.40;51.20;;;;;;4991143;28;20485;-70
2021/05/11 05:32:07;;;;;;;0.80;0.70;;;22.40;51.10;;;;;;4986857;28;21121;-69
2021/05/11 05:34:34;;;;;;;0.70;0.57;;;22.40;51.10;;;;;;4989176;28;20951;-70
2021/05/11 05:37:01;;;;;;;1.30;0.80;;;22.40;51.00;;;;;;4984246;28;20419;-71
2021/05/11 05:39:31;;;;;;;0.70;0.60;;;22.50;51.00;;;;;;4981763;28;20416;-71
2021/05/11 05:41:57;;;;;;;1.00;0.65;;;22.50;50.90;;;;;;4980702;28;20431;-70
2021/05/11 05:44:23;;;;;;;1.60;0.80;;;22.50;51.00;;;;;;4987493;28;20446;-72
2021/05/11 05:46:49;;;;;;;1.20;1.10;;;22.40;51.00;;;;;;4979941;28;20475;-68
2021/05/11 05:49:16;;;;;;;0.80;0.60;;;22.40;51.10;;;;;;4985764;28;20425;-70
2021/05/11 05:51:46;;;;;;;1.60;0.70;;;22.40;51.20;;;;;;4992210;28;20416;-70
2021/05/11 05:54:12;;;;;;;0.88;0.70;;;22.40;51.30;;;;;;4981720;28;20411;-70
2021/05/11 05:56:38;;;;;;;1.00;0.70;;;22.30;51.20;;;;;;4991049;28;20416;-73
2021/05/11 05:59:05;;;;;;;1.92;0.60;;;22.20;51.30;;;;;;4945149;28;20414;-69
2021/05/11 06:01:31;;;;;;;4.60;1.05;;;22.20;51.40;;;;;;4973121;28;20416;-68
2021/05/11 06:04:05;;;;;;;1.00;0.70;;;22.20;51.50;;;;;;4976592;28;20416;-68
2021/05/11 06:06:32;;;;;;;1.45;0.70;;;22.20;51.40;;;;;;4974419;28;20427;-69
2021/05/11 06:09:00;;;;;;;0.98;0.80;;;22.20;51.50;;;;;;4981142;28;20433;-71
2021/05/11 06:11:30;;;;;;;0.60;0.55;;;22.20;51.50;;;;;;4994154;28;20416;-70
2021/05/11 06:14:07;;;;;;;1.03;0.70;;;22.10;51.50;;;;;;4987260;28;20419;-67
2021/05/11 06:19:18;;;;;;;0.60;0.60;;;22.20;51.60;;;;;;4990004;28;20452;-71
2021/05/11 06:21:44;;;;;;;1.60;0.70;;;22.20;51.50;;;;;;4987514;28;20436;-70
2021/05/11 06:24:11;;;;;;;1.37;0.70;;;22.30;51.50;;;;;;4984843;28;20435;-70
2021/05/11 06:26:37;;;;;;;1.40;0.80;;;22.30;51.50;;;;;;4985747;28;20428;-68
2021/05/11 06:29:06;;;;;;;2.10;0.70;;;22.30;51.40;;;;;;4998140;28;21571;-70
2021/05/11 06:31:32;;;;;;;1.15;0.80;;;22.30;51.40;;;;;;4996586;28;20493;-69
2021/05/11 06:33:59;;;;;;;0.80;0.70;;;22.20;51.30;;;;;;5007717;28;20492;-70
2021/05/11 06:36:25;;;;;;;2.40;0.80;;;22.20;51.60;;;;;;4998344;28;20817;-68
2021/05/11 06:38:52;;;;;;;0.70;0.70;;;22.10;51.70;;;;;;4987470;28;20438;-70
2021/05/11 06:41:19;;;;;;;1.63;1.10;;;22.10;51.80;;;;;;4992517;28;20419;-71
2021/05/11 06:43:46;;;;;;;1.50;0.80;;;22.10;51.90;;;;;;5000448;28;20490;-69
2021/05/11 06:49:15;;;;;;;2.20;1.00;;;22.00;52.10;;;;;;4973757;28;20413;-72
2021/05/11 06:54:37;;;;;;;1.65;1.00;;;22.00;52.10;;;;;;4955933;28;20527;-70
2021/05/11 06:57:05;;;;;;;0.98;0.70;;;22.00;52.20;;;;;;4985461;28;20908;-69
2021/05/11 06:59:31;;;;;;;1.60;0.90;;;22.00;52.10;;;;;;4995952;28;20424;-72
2021/05/11 07:01:59;;;;;;;1.40;0.60;;;21.90;52.00;;;;;;4997591;28;20409;-69
2021/05/11 07:04:25;;;;;;;1.70;0.65;;;21.90;52.00;;;;;;4985748;28;20519;-70
2021/05/11 07:06:51;;;;;;;0.90;0.75;;;21.90;52.00;;;;;;4975996;28;20453;-72
2021/05/11 07:09:25;;;;;;;1.50;0.70;;;21.90;51.90;;;;;;4992392;28;20425;-71
2021/05/11 07:14:36;;;;;;;1.80;0.80;;;22.00;51.60;;;;;;4980904;28;21249;-70
2021/05/11 07:17:02;;;;;;;2.00;0.68;;;22.10;51.60;;;;;;5008401;28;20452;-70
2021/05/11 07:19:29;;;;;;;1.50;0.90;;;22.10;51.60;;;;;;4976591;28;20414;-70
2021/05/11 07:21:55;;;;;;;1.10;0.70;;;22.10;51.50;;;;;;4996446;28;20723;-70
2021/05/11 07:24:26;;;;;;;0.70;0.70;;;22.10;51.50;;;;;;5004817;28;20898;-68
2021/05/11 07:27:10;;;;;;;1.60;0.70;;;22.10;51.50;;;;;;4992900;28;20435;-69
2021/05/11 07:29:44;;;;;;;1.58;0.88;;;22.10;51.60;;;;;;4995205;28;20421;-70
2021/05/11 07:32:11;;;;;;;1.00;0.70;;;22.00;51.50;;;;;;4996763;28;20435;-70
2021/05/11 07:34:41;;;;;;;2.90;1.00;;;22.00;51.50;;;;;;4996732;28;20518;-70
2021/05/11 07:37:07;;;;;;;1.50;0.60;;;22.10;51.50;;;;;;4996625;28;20506;-69
2021/05/11 07:39:34;;;;;;;1.08;0.65;;;22.10;51.50;;;;;;4988320;28;20420;-74
2021/05/11 07:42:00;;;;;;;2.50;0.90;;;22.10;51.40;;;;;;5003139;28;20427;-71
2021/05/11 07:44:27;;;;;;;3.42;0.80;;;22.20;51.40;;;;;;5004722;28;20419;-69
2021/05/11 07:46:57;;;;;;;3.92;0.90;;;22.20;51.30;;;;;;4998057;28;20997;-69
2021/05/11 08:03:45;;;;;;;1.25;0.70;;;22.10;51.30;;;;;;4994547;28;20408;-69
2021/05/11 08:09:49;;;;;;;1.20;0.80;;;22.10;51.40;;;;;;4996079;28;20503;-70
2021/05/11 08:15:04;;;;;;;0.85;0.80;;;22.10;51.60;;;;;;4956488;28;20461;-70
2021/05/11 08:17:33;;;;;;;1.20;0.60;;;22.00;51.60;;;;;;4995376;28;21038;-69
2021/05/11 08:20:13;;;;;;;1.00;0.80;;;22.00;51.60;;;;;;4993689;28;20448;-69
2021/05/11 08:23:07;;;;;;;1.67;0.80;;;22.00;51.50;;;;;;5002328;28;21013;-70
2021/05/11 08:28:18;;;;;;;0.70;0.60;;;22.10;51.50;;;;;;5004076;28;20496;-69
2021/05/11 08:30:44;;;;;;;1.23;0.68;;;22.10;51.30;;;;;;4979054;28;20550;-68
2021/05/11 08:33:10;;;;;;;1.15;0.60;;;22.10;51.30;;;;;;5004830;28;21557;-75
2021/05/11 08:35:37;;;;;;;1.30;0.60;;;22.10;51.30;;;;;;4993006;28;20423;-67
2021/05/11 08:38:03;;;;;;;1.13;0.85;;;22.10;51.30;;;;;;4996145;28;20424;-68
2021/05/11 08:40:30;;;;;;;1.13;0.70;;;22.10;51.30;;;;;;4996709;28;20412;-69
2021/05/11 08:42:58;;;;;;;3.70;0.80;;;22.10;51.20;;;;;;4996877;28;20450;-70
2021/05/11 08:45:24;;;;;;;0.60;0.50;;;22.10;51.20;;;;;;4992898;28;20406;-70
2021/05/11 08:47:50;;;;;;;1.75;0.70;;;22.10;51.40;;;;;;4980254;28;20414;-69
2021/05/11 08:50:18;;;;;;;1.80;0.57;;;22.00;51.40;;;;;;4987971;28;20415;-68
2021/05/11 08:52:58;;;;;;;0.63;0.50;;;22.00;51.50;;;;;;4982354;28;20972;-69
2021/05/11 09:06:39;;;;;;;1.10;0.70;;;22.00;51.60;;;;;;4992177;28;20420;-68
2021/05/11 09:09:24;;;;;;;0.97;0.60;;;22.00;51.70;;;;;;4990798;28;20430;-73
2021/05/11 09:15:33;;;;;;;2.40;0.70;;;22.00;51.50;;;;;;4988720;28;20434;-68
2021/05/11 09:26:08;;;;;;;0.90;0.73;;;22.10;51.40;;;;;;4988710;28;20437;-70
2021/05/11 09:28:40;;;;;;;1.50;0.60;;;22.10;51.50;;;;;;4994154;28;20428;-71
2021/05/11 09:31:20;;;;;;;1.30;0.70;;;22.10;51.50;;;;;;4996035;28;20985;-69
2021/05/11 09:33:53;;;;;;;1.30;0.50;;;22.10;51.50;;;;;;4999222;28;20423;-72
2021/05/11 09:45:21;;;;;;;2.38;1.17;;;22.10;51.40;;;;;;4999074;28;20424;-68
2021/05/11 10:36:44;;;;;;;0.70;0.50;;;22.10;51.70;;;;;;4993908;28;20434;-72
2021/05/11 10:46:25;;;;;;;1.50;0.50;;;22.30;51.40;;;;;;4926706;28;20873;-69
2021/05/11 10:48:16;;;;;;;0.80;0.50;;;22.30;51.20;;;;;;4979987;28;20409;-69
2021/05/11 10:50:44;;;;;;;1.80;0.60;;;22.30;51.20;;;;;;4982148;28;20475;-71
2021/05/11 10:53:38;;;;;;;1.25;0.50;;;22.30;51.40;;;;;;4981942;28;21096;-70
2021/05/11 10:56:52;;;;;;;1.40;0.60;;;22.20;51.30;;;;;;4971060;28;20431;-71
2021/05/11 11:02:01;;;;;;;0.90;0.50;;;22.20;51.50;;;;;;4996506;28;21073;-68
2021/05/11 11:04:32;;;;;;;2.80;0.50;;;22.20;51.60;;;;;;4999158;28;20421;-69
2021/05/11 11:07:01;;;;;;;;;;;22.20;51.50;;;;;;4986903;28;20429;-72
2021/05/11 11:09:28;;;;;;;;;;;22.20;51.50;;;;;;5003562;28;19936;-69
2021/05/11 11:11:54;;;;;;;;;;;22.20;51.60;;;;;;5001837;28;19925;-69
2021/05/11 11:14:20;;;;;;;;;;;22.10;51.70;;;;;;4994865;28;19937;-71
2021/05/11 11:16:46;;;;;;;;;;;22.00;51.90;;;;;;4999224;28;19976;-68
2021/05/11 11:19:13;;;;;;;;;;;21.90;52.10;;;;;;4995474;28;19929;-70
2021/05/11 11:21:48;;;;;;;;;;;21.80;52.40;;;;;;4995283;28;19925;-68
2021/05/11 11:24:23;;;;;;;;;;;21.70;52.70;;;;;;5007631;28;19925;-72
2021/05/11 11:26:51;;;;;;;;;;;21.50;52.80;;;;;;4989495;28;20385;-68
2021/05/11 11:29:17;;;;;;;;;;;21.40;53.00;;;;;;4997386;28;19925;-69
2021/05/11 11:31:44;;;;;;;;;;;21.40;53.20;;;;;;5003892;28;19936;-69
2021/05/11 11:34:16;;;;;;;;;;;21.40;53.30;;;;;;4998402;28;20990;-70
2021/05/11 11:36:45;;;;;;;;;;;21.40;54.10;;;;;;5000812;28;19926;-70
2021/05/11 11:39:16;;;;;;;;;;;21.30;53.30;;;;;;4998232;28;20699;-73
2021/05/11 11:41:42;;;;;;;;;;;21.40;53.40;;;;;;4998625;28;20377;-71
2021/05/11 11:44:08;;;;;;;;;;;21.40;53.40;;;;;;5000988;28;19929;-69
2021/05/11 11:46:34;;;;;;;;;;;21.30;53.50;;;;;;4989305;28;20386;-71
2021/05/11 11:49:01;;;;;;;;;;;21.30;53.60;;;;;;4998639;28;20322;-69
2021/05/11 11:51:28;;;;;;;;;;;21.20;53.70;;;;;;4989930;28;19929;-69
2021/05/11 11:54:05;;;;;;;;;;;21.20;53.90;;;;;;4996121;28;19929;-71
2021/05/11 11:59:15;;;;;;;;;;;21.10;54.00;;;;;;4994018;28;19932;-70
2021/05/11 12:01:41;;;;;;;;;;;21.10;54.10;;;;;;4999070;28;19928;-69
2021/05/11 12:04:07;;;;;;;;;;;21.10;54.10;;;;;;4999881;28;19933;-70
2021/05/11 12:06:34;;;;;;;;;;;21.00;54.10;;;;;;4994146;28;19929;-70
2021/05/11 12:09:01;;;;;;;;;;;21.00;54.10;;;;;;4987670;28;19926;-75
2021/05/11 12:11:28;;;;;;;;;;;21.00;54.00;;;;;;4988997;28;19921;-69
2021/05/11 12:13:54;;;;;;;;;;;21.00;54.00;;;;;;5008185;28;20293;-73
2021/05/11 12:16:21;;;;;;;;;;;21.00;54.70;;;;;;4993192;28;19931;-69
2021/05/11 12:19:01;;;;;;;;;;;21.00;54.00;;;;;;5010570;28;20305;-71
2021/05/11 12:21:27;;;;;;;;;;;21.00;54.00;;;;;;4988985;28;19964;-68
2021/05/11 12:24:02;;;;;;;;;;;21.10;54.00;;;;;;4988633;28;20577;-69
2021/05/11 12:26:29;;;;;;;;;;;21.10;53.80;;;;;;4975904;28;21373;-71
2021/05/11 12:29:04;;;;;;;;;;;21.20;53.70;;;;;;4998299;28;20374;-68
2021/05/11 12:31:34;;;;;;;;;;;21.20;53.70;;;;;;4994993;28;19922;-68
2021/05/11 12:34:03;;;;;;;;;;;21.20;53.60;;;;;;4994995;28;19949;-69
2021/05/11 12:36:29;;;;;;;;;;;21.20;53.50;;;;;;4996603;28;20441;-69
2021/05/11 12:39:10;;;;;;;;;;;21.10;53.60;;;;;;4992298;28;20334;-71
2021/05/11 12:41:37;;;;;;;;;;;21.10;53.60;;;;;;4994036;28;19925;-69
2021/05/11 12:44:03;;;;;;;;;;;21.10;53.60;;;;;;4999071;28;19925;-71
2021/05/11 12:46:30;;;;;;;;;;;21.10;53.80;;;;;;4993668;28;19925;-71
2021/05/11 12:48:57;;;;;;;;;;;21.10;53.70;;;;;;5000198;28;19999;-68
2021/05/11 12:51:26;;;;;;;;;;;21.10;53.70;;;;;;4977774;28;19930;-71
2021/05/11 12:53:54;;;;;;;;;;;21.10;53.80;;;;;;4992464;28;19971;-69
2021/05/11 12:56:43;;;;;;;;;;;21.00;53.70;;;;;;4963929;28;19925;-69
2021/05/11 12:59:12;;;;;;;;;;;21.10;53.80;;;;;;4987698;28;20357;-72
2021/05/11 13:01:51;;;;;;;;;;;21.00;53.80;;;;;;4992729;28;19944;-70
2021/05/11 13:15:32;;;;;;;;;;;21.20;53.40;;;;;;4986274;28;19979;-70
2021/05/11 13:20:58;;;;;;;;;;;21.20;53.40;;;;;;4995530;28;19932;-69
2021/05/11 13:25:07;;;;;;;;;;;21.10;53.50;;;;;;4997237;28;20309;-70
2021/05/11 13:26:13;;;;;;;;;;;21.10;53.50;;;;;;4999542;28;20151;-72
2021/05/11 13:28:46;;;;;;;;;;;21.20;53.60;;;;;;4991384;28;20274;-69
2021/05/11 13:31:21;;;;;;;;;;;21.20;53.50;;;;;;5002991;28;19936;-71
2021/05/11 13:33:51;;;;;;;;;;;21.20;53.50;;;;;;4995448;28;20324;-70
2021/05/11 13:36:17;;;;;;;;;;;21.20;53.40;;;;;;4997550;28;19935;-73
2021/05/11 13:38:43;;;;;;;;;;;21.20;53.30;;;;;;4996991;28;19925;-73
2021/05/11 13:41:09;;;;;;;;;;;21.20;53.30;;;;;;4996827;28;19921;-72
2021/05/11 13:43:35;;;;;;;;;;;21.20;53.20;;;;;;4994230;28;19925;-69
2021/05/11 13:46:01;;;;;;;;;;;21.20;53.40;;;;;;4997357;28;20461;-70
2021/05/11 13:48:33;;;;;;;;;;;21.20;53.30;;;;;;4999816;28;19929;-72
2021/05/11 13:51:01;;;;;;;;;;;21.20;53.40;;;;;;4994548;28;20035;-71
2021/05/11 13:53:28;;;;;;;;;;;21.10;53.40;;;;;;4975117;28;19925;-70
2021/05/11 13:56:09;;;;;;;;;;;21.10;53.40;;;;;;4955400;28;19925;-70
2021/05/11 14:04:05;;;;;;;;;;;21.10;53.50;;;;;;4998010;28;19956;-70
2021/05/11 14:06:31;;;;;;;;;;;21.10;53.50;;;;;;4992634;28;20866;-69
2021/05/11 14:08:57;;;;;;;;;;;21.10;53.50;;;;;;4976193;28;19955;-70
2021/05/11 14:11:23;;;;;;;;;;;21.10;53.50;;;;;;4996290;28;20046;-70
2021/05/11 14:13:50;;;;;;;;;;;21.10;53.40;;;;;;4975387;28;19925;-73
2021/05/11 14:16:16;;;;;;;;;;;21.20;53.50;;;;;;4997371;28;19926;-69
2021/05/11 14:18:42;;;;;;;;;;;21.10;53.40;;;;;;4999041;28;19933;-73
2021/05/11 14:21:08;;;;;;;;;;;21.10;53.40;;;;;;5001508;28;19929;-71
2021/05/11 14:23:34;;;;;;;;;;;21.10;53.40;;;;;;4996558;28;19932;-70
2021/05/11 14:26:01;;;;;;;;;;;21.10;53.60;;;;;;5008549;28;19937;-71
2021/05/11 14:28:27;;;;;;;;;;;21.10;53.60;;;;;;4998259;28;19924;-71
2021/05/11 14:30:53;;;;;;;;;;;21.10;53.70;;;;;;5000008;28;19925;-69
2021/05/11 14:33:19;;;;;;;;;;;21.10;53.80;;;;;;5004575;28;20015;-69
2021/05/11 14:35:45;;;;;;;;;;;21.00;53.80;;;;;;5001154;28;19980;-70
2021/05/11 14:38:12;;;;;;;;;;;21.00;53.90;;;;;;5001511;28;19930;-70
2021/05/11 14:40:38;;;;;;;;;;;21.00;54.00;;;;;;4996834;28;19988;-69
2021/05/11 14:43:04;;;;;;;;;;;21.00;54.00;;;;;;4999365;28;19948;-70
2021/05/11 14:45:30;;;;;;;;;;;21.00;54.00;;;;;;4998159;28;19925;-69
2021/05/11 14:47:56;;;;;;;;;;;21.00;54.10;;;;;;4977631;28;19968;-69
2021/05/11 14:50:22;;;;;;;;;;;21.00;54.10;;;;;;4991804;28;19925;-70
2021/05/11 14:52:52;;;;;;;;;;;21.00;54.10;;;;;;4968420;28;19976;-69
2021/05/11 14:55:23;;;;;;;;;;;21.00;55.00;;;;;;4962650;28;20468;-73
2021/05/11 14:57:49;;;;;;;;;;;21.00;54.10;;;;;;4957408;28;21336;-69
2021/05/11 15:00:15;;;;;;;;;;;21.00;54.00;;;;;;4997614;28;20363;-69
2021/05/11 15:02:42;;;;;;;;;;;21.00;53.90;;;;;;4990933;28;20576;-70
2021/05/11 15:05:08;;;;;;;;;;;21.10;53.90;;;;;;5009630;28;19932;-70
2021/05/11 15:07:34;;;;;;;;;;;21.10;53.80;;;;;;4975310;28;19940;-70
2021/05/11 15:10:00;;;;;;;;;;;21.10;53.80;;;;;;4995730;28;19932;-71
2021/05/11 15:12:27;;;;;;;;;;;21.10;53.80;;;;;;4988037;28;19929;-67
2021/05/11 15:14:53;;;;;;;;;;;21.20;53.90;;;;;;4980144;28;19942;-69
2021/05/11 15:20:03;;;;;;;;;;;21.20;53.80;;;;;;4983198;28;19932;-74
2021/05/11 15:22:29;;;;;;;;;;;21.10;53.80;;;;;;4998995;28;19933;-70
2021/05/11 15:24:55;;;;;;;;;;;21.10;53.90;;;;;;4999578;28;19925;-71
2021/05/11 15:27:21;;;;;;;;;;;21.10;54.10;;;;;;5000091;28;20001;-69
2021/05/11 15:29:48;;;;;;;;;;;21.10;54.10;;;;;;4994064;28;19925;-68
2021/05/11 15:32:33;;;;;;;;;;;21.00;54.00;;;;;;4998629;28;19925;-71
2021/05/11 15:34:59;;;;;;;;;;;21.00;54.10;;;;;;4988736;28;19925;-72
2021/05/11 15:37:25;;;;;;;;;;;21.00;54.10;;;;;;4995144;28;19995;-70
2021/05/11 15:39:51;;;;;;;;;;;21.00;54.20;;;;;;4996733;28;19925;-70
2021/05/11 15:42:17;;;;;;;;;;;21.00;54.30;;;;;;4994635;28;19925;-71
2021/05/11 15:44:43;;;;;;;;;;;21.00;54.20;;;;;;4997071;28;19925;-70
2021/05/11 15:47:10;;;;;;;;;;;21.00;54.20;;;;;;4987762;28;19967;-68
2021/05/11 15:49:36;;;;;;;;;;;21.00;54.10;;;;;;4982816;28;19929;-69
2021/05/11 15:52:02;;;;;;;;;;;21.00;54.40;;;;;;4995378;28;19928;-71
2021/05/11 15:54:28;;;;;;;;;;;21.00;54.30;;;;;;4986569;28;19925;-69
2021/05/11 15:56:54;;;;;;;;;;;21.10;54.40;;;;;;4981191;28;20619;-71
2021/05/11 15:59:20;;;;;;;;;;;21.10;54.30;;;;;;4979268;28;19936;-73
2021/05/11 16:01:46;;;;;;;;;;;21.10;54.20;;;;;;5005264;28;19928;-69
2021/05/11 16:04:13;;;;;;;;;;;21.10;54.30;;;;;;4970155;28;19937;-70
2021/05/11 16:06:39;;;;;;;;;;;21.10;54.30;;;;;;4997418;28;19929;-71
2021/05/11 16:09:05;;;;;;;;;;;21.00;54.30;;;;;;4987752;28;19921;-75
2021/05/11 16:11:31;;;;;;;;;;;21.00;54.40;;;;;;4983342;28;19928;-70
2021/05/11 16:13:57;;;;;;;;;;;21.00;54.50;;;;;;4998057;28;20380;-72
2021/05/11 16:16:23;;;;;;;;;;;21.00;54.40;;;;;;4983153;28;19932;-70
2021/05/11 16:18:49;;;;;;;;;;;21.00;54.50;;;;;;4985182;28;20360;-70
2021/05/11 16:21:16;;;;;;;;;;;21.00;54.40;;;;;;4991981;28;19933;-71
2021/05/11 16:23:42;;;;;;;;;;;21.00;54.40;;;;;;4996675;28;19932;-72
2021/05/11 16:26:08;;;;;;;;;;;21.10;54.40;;;;;;4986352;28;20978;-72
2021/05/11 16:28:34;;;;;;;;;;;21.10;54.30;;;;;;4986943;28;20008;-73
2021/05/11 16:31:00;;;;;;;;;;;21.10;54.30;;;;;;5001833;28;20617;-69